createdAt,value
2023-01-07T00:00:33.657Z,95274.75
2023-01-07T00:03:00.253Z,95275.72
2023-01-07T00:05:26.684Z,95273.41
2023-01-07T00:07:53.043Z,95272.41
2023-01-07T00:10:19.458Z,95268.81
2023-01-07T00:12:48.323Z,95262.72
2023-01-07T00:15:14.939Z,95267.84
2023-01-07T00:17:42.594Z,95255.66
2023-01-07T00:20:11.069Z,95256.34
2023-01-07T00:22:37.506Z,95249.25
2023-01-07T00:25:05.383Z,95257.03
2023-01-07T00:27:31.725Z,95262.13
2023-01-07T00:29:58.191Z,95260.31
2023-01-07T00:32:25.658Z,95248.81
2023-01-07T00:34:52.270Z,95250.31
2023-01-07T00:37:18.823Z,95257.38
2023-01-07T00:39:46.228Z,95251.81
2023-01-07T00:42:14.676Z,95256.78
2023-01-07T00:44:42.069Z,95251.34
2023-01-07T00:47:08.945Z,95251.34
2023-01-07T00:49:35.345Z,95245.63
2023-01-07T00:52:01.747Z,95246.56
2023-01-07T00:54:28.311Z,95241.28
2023-01-07T00:56:54.796Z,95244.22
2023-01-07T00:59:21.269Z,95233.53
2023-01-07T01:01:49.904Z,95239.63
2023-01-07T01:04:16.280Z,95234.81
2023-01-07T01:06:44.973Z,95236.94
2023-01-07T01:09:11.347Z,95234.31
2023-01-07T01:11:39.267Z,95228.06
2023-01-07T01:14:05.956Z,95231.06
2023-01-07T01:16:32.968Z,95229.03
2023-01-07T01:18:59.685Z,95222.13
2023-01-07T01:21:27.699Z,95219.50
2023-01-07T01:23:56.813Z,95220.19
2023-01-07T01:26:23.746Z,95225.13
2023-01-07T01:28:50.150Z,95219.50
2023-01-07T01:31:18.857Z,95218.81
2023-01-07T01:33:45.357Z,95219.78
2023-01-07T01:36:12.149Z,95214.25
2023-01-07T01:38:38.780Z,95214.53
2023-01-07T01:41:05.688Z,95210.38
2023-01-07T01:43:32.455Z,95213.34
2023-01-07T01:45:58.818Z,95207.34
2023-01-07T01:48:25.200Z,95210.16
2023-01-07T01:50:53.826Z,95206.00
2023-01-07T01:53:20.225Z,95207.63
2023-01-07T01:55:48.489Z,95206.53
2023-01-07T01:58:15.331Z,95202.44
2023-01-07T02:00:41.829Z,95198.53
2023-01-07T02:03:08.774Z,95195.31
2023-01-07T02:05:38.195Z,95192.56
2023-01-07T02:08:08.393Z,95193.91
2023-01-07T02:10:34.795Z,95183.88
2023-01-07T02:13:01.217Z,95184.56
2023-01-07T02:15:28.958Z,95189.66
2023-01-07T02:17:55.412Z,95183.56
2023-01-07T02:20:21.898Z,95174.19
2023-01-07T02:22:48.227Z,95177.78
2023-01-07T02:25:15.786Z,95177.63
2023-01-07T02:27:42.116Z,95178.41
2023-01-07T02:30:08.459Z,95165.91
2023-01-07T02:32:34.818Z,95164.78
2023-01-07T02:35:01.359Z,95156.91
2023-01-07T02:37:27.838Z,95165.75
2023-01-07T02:39:56.255Z,95165.75
2023-01-07T02:42:22.907Z,95155.91
2023-01-07T02:44:49.254Z,95151.47
2023-01-07T02:47:15.865Z,95153.44
2023-01-07T02:49:42.249Z,95150.66
2023-01-07T02:52:08.585Z,95147.72
2023-01-07T02:54:34.969Z,95142.47
2023-01-07T02:57:01.482Z,95140.66
2023-01-07T02:59:29.503Z,95134.56
2023-01-07T03:01:55.969Z,95145.09
2023-01-07T03:04:22.446Z,95135.69
2023-01-07T03:06:48.874Z,95137.50
2023-01-07T03:09:15.343Z,95128.81
2023-01-07T03:11:41.786Z,95129.59
2023-01-07T03:14:08.379Z,95124.50
2023-01-07T03:16:34.837Z,95127.13
2023-01-07T03:19:01.665Z,95121.88
2023-01-07T03:21:30.351Z,95119.41
2023-01-07T03:23:56.682Z,95119.56
2023-01-07T03:26:23.069Z,95116.94
2023-01-07T03:28:49.409Z,95118.72
2023-01-07T03:31:15.969Z,95120.97
2023-01-07T03:33:50.206Z,95115.03
2023-01-07T03:36:16.594Z,95111.91
2023-01-07T03:38:46.181Z,95106.81
2023-01-07T03:41:12.543Z,95108.75
2023-01-07T03:43:39.038Z,95105.13
2023-01-07T03:46:06.839Z,95103.34
2023-01-07T03:48:33.559Z,95090.03
2023-01-07T03:50:59.929Z,95090.03
2023-01-07T03:53:26.547Z,95099.59
2023-01-07T03:55:53.029Z,95096.28
2023-01-07T03:58:19.403Z,95100.03
2023-01-07T04:00:48.309Z,95091.63
2023-01-07T04:03:14.675Z,95083.75
2023-01-07T04:05:41.152Z,95092.31
2023-01-07T04:08:07.612Z,95087.00
2023-01-07T04:10:34.332Z,95078.44
2023-01-07T04:13:00.747Z,95080.00
2023-01-07T04:15:27.308Z,95079.72
2023-01-07T04:17:54.103Z,95071.81
2023-01-07T04:20:20.766Z,95069.19
2023-01-07T04:22:47.195Z,95074.47
2023-01-07T04:25:13.549Z,95072.13
2023-01-07T04:27:39.896Z,95072.44
2023-01-07T04:30:08.337Z,95065.84
2023-01-07T04:32:34.776Z,95062.88
2023-01-07T04:35:01.300Z,95064.84
2023-01-07T04:37:27.755Z,95054.66
2023-01-07T04:39:54.916Z,95055.16
2023-01-07T04:42:21.263Z,95058.00
2023-01-07T04:44:47.746Z,95049.13
2023-01-07T04:47:14.184Z,95048.31
2023-01-07T04:49:41.723Z,95040.44
2023-01-07T04:52:08.580Z,95040.56
2023-01-07T04:54:34.972Z,95035.03
2023-01-07T04:57:01.335Z,95042.25
2023-01-07T04:59:27.675Z,95041.56
2023-01-07T05:01:54.133Z,95048.63
2023-01-07T05:04:20.629Z,95043.06
2023-01-07T05:06:46.998Z,95037.94
2023-01-07T05:09:16.064Z,95041.13
2023-01-07T05:11:42.680Z,95042.75
2023-01-07T05:14:11.750Z,95047.84
2023-01-07T05:16:38.268Z,95040.78
2023-01-07T06:03:42.697Z,95030.88
2023-01-07T06:06:09.305Z,95028.09
2023-01-07T06:08:36.016Z,95029.91
2023-01-07T06:11:02.403Z,95040.28
2023-01-07T06:13:28.741Z,95032.22
2023-01-07T06:15:55.565Z,95031.94
2023-01-07T06:18:21.928Z,95019.47
2023-01-07T06:20:48.608Z,95025.38
2023-01-07T06:23:14.981Z,95032.44
2023-01-07T06:25:41.368Z,95028.16
2023-01-07T06:28:07.833Z,95024.72
2023-01-07T06:30:34.323Z,95025.69
2023-01-07T06:33:00.649Z,95028.63
2023-01-07T06:35:27.011Z,95026.81
2023-01-07T06:37:53.342Z,95021.41
2023-01-07T06:40:19.770Z,95011.69
2023-01-07T06:42:46.144Z,95013.38
2023-01-07T06:45:14.821Z,95016.28
2023-01-07T06:47:41.153Z,95012.38
2023-01-07T06:50:07.541Z,95009.91
2023-01-07T06:52:33.882Z,95018.63
2023-01-07T06:55:00.203Z,95017.50
2023-01-07T06:57:26.696Z,95014.69
2023-01-07T06:59:53.197Z,95005.03
2023-01-07T07:02:19.823Z,95003.84
2023-01-07T07:04:46.302Z,95000.25
2023-01-07T07:07:12.952Z,94999.59
2023-01-07T07:09:39.327Z,94996.28
2023-01-07T07:12:05.871Z,94994.63
2023-01-07T07:14:34.835Z,94991.66
2023-01-07T07:17:01.371Z,94987.38
2023-01-07T07:19:29.441Z,94995.41
2023-01-07T07:21:55.903Z,94986.03
2023-01-07T07:24:22.315Z,94995.19
2023-01-07T07:26:49.715Z,94995.97
2023-01-07T07:29:16.279Z,94998.41
2023-01-07T07:31:42.726Z,94999.84
2023-01-07T07:34:09.176Z,94990.78
2023-01-07T07:36:35.662Z,95004.75
2023-01-07T07:39:02.393Z,94998.94
2023-01-07T07:41:28.767Z,95005.66
2023-01-07T07:43:55.525Z,95005.50
2023-01-07T07:46:21.940Z,95000.72
2023-01-07T07:48:48.943Z,95000.38
2023-01-07T07:51:15.320Z,94998.09
2023-01-07T07:53:41.695Z,95002.19
2023-01-07T07:56:08.130Z,95001.91
2023-01-07T07:58:37.503Z,94999.09
2023-01-07T08:01:04.046Z,95005.72
2023-01-07T08:03:33.613Z,94994.53
2023-01-07T08:06:00.129Z,94999.63
2023-01-07T08:08:26.582Z,94999.34
2023-01-07T08:10:53.116Z,94984.91
2023-01-07T08:13:19.746Z,94993.97
2023-01-07T08:15:46.887Z,94994.81
2023-01-07T08:18:13.507Z,94987.88
2023-01-07T08:20:40.155Z,94985.75
2023-01-07T08:23:06.609Z,94971.16
2023-01-07T08:25:33.066Z,94975.47
2023-01-07T08:27:59.556Z,94965.16
2023-01-07T08:30:26.321Z,94971.28
2023-01-07T08:32:52.905Z,94970.03
2023-01-07T08:35:19.516Z,94960.91
2023-01-07T08:37:46.309Z,94956.16
2023-01-07T08:40:13.115Z,94956.53
2023-01-07T08:42:39.467Z,94958.06
2023-01-07T08:45:06.140Z,94959.41
2023-01-07T08:47:32.634Z,94958.13
2023-01-07T08:49:59.089Z,94947.97
2023-01-07T08:52:25.534Z,94942.38
2023-01-07T08:54:53.023Z,94951.28
2023-01-07T08:57:19.616Z,94951.75
2023-01-07T08:59:45.968Z,94947.97
2023-01-07T09:02:12.424Z,94948.41
2023-01-07T09:04:39.125Z,94952.03
2023-01-07T09:07:05.740Z,94954.66
2023-01-07T09:09:32.402Z,94958.50
2023-01-07T09:11:58.779Z,94954.03
2023-01-07T09:14:25.121Z,94951.28
2023-01-07T09:16:51.571Z,94954.56
2023-01-07T09:19:17.978Z,94951.94
2023-01-07T09:21:44.557Z,94946.03
2023-01-07T09:24:10.942Z,94946.16
2023-01-07T09:26:37.651Z,94950.13
2023-01-07T09:29:11.908Z,94942.75
2023-01-07T09:31:38.402Z,94942.22
2023-01-07T09:34:04.817Z,94938.13
2023-01-07T09:36:31.491Z,94946.69
2023-01-07T09:38:57.838Z,94943.06
2023-01-07T09:41:24.269Z,94942.75
2023-01-07T09:44:00.890Z,94939.44
2023-01-07T09:46:28.093Z,94949.00
2023-01-07T09:48:54.516Z,94948.03
2023-01-07T09:51:20.920Z,94941.75
2023-01-07T09:53:47.251Z,94940.59
2023-01-07T09:56:13.615Z,94943.72
2023-01-07T09:58:40.116Z,94939.94
2023-01-07T10:01:07.571Z,94936.94
2023-01-07T10:03:34.029Z,94929.19
2023-01-07T10:06:00.447Z,94926.19
2023-01-07T10:08:30.854Z,94932.78
2023-01-07T10:10:58.600Z,94926.09
2023-01-07T10:13:24.997Z,94917.69
2023-01-07T10:15:51.392Z,94914.06
2023-01-07T10:18:17.912Z,94914.25
2023-01-07T10:20:46.635Z,94911.75
2023-01-07T10:23:13.029Z,94898.09
2023-01-07T10:25:39.502Z,94897.91
2023-01-07T10:28:06.928Z,94896.91
2023-01-07T10:30:33.312Z,94879.94
2023-01-07T10:32:59.688Z,94881.72
2023-01-07T10:35:26.033Z,94878.09
2023-01-07T10:37:52.716Z,94875.28
2023-01-07T10:40:19.167Z,94871.44
2023-01-07T10:42:45.541Z,94862.19
2023-01-07T10:45:11.945Z,94860.81
2023-01-07T10:47:40.629Z,94862.75
2023-01-07T10:50:06.973Z,94849.50
2023-01-07T10:52:33.363Z,94849.63
2023-01-07T10:55:00.093Z,94840.66
2023-01-07T10:57:26.663Z,94834.44
2023-01-07T10:59:53.055Z,94837.25
2023-01-07T11:02:21.733Z,94823.28
2023-01-07T11:04:48.169Z,94819.28
2023-01-07T11:07:14.523Z,94827.06
2023-01-07T11:09:41.539Z,94815.25
2023-01-07T11:12:07.873Z,94817.13
2023-01-07T11:14:34.337Z,94817.34
2023-01-07T11:17:00.700Z,94813.63
2023-01-07T11:19:27.044Z,94806.59
2023-01-07T11:21:53.661Z,94802.41
2023-01-07T11:24:20.071Z,94799.56
2023-01-07T11:26:46.495Z,94800.59
2023-01-07T11:29:13.009Z,94791.00
2023-01-07T11:31:39.375Z,94783.81
2023-01-07T11:34:05.765Z,94789.72
2023-01-07T11:36:32.183Z,94781.25
2023-01-07T11:38:58.959Z,94776.69
2023-01-07T11:41:25.309Z,94779.34
2023-01-07T11:43:52.727Z,94770.13
2023-01-07T11:46:22.463Z,94772.78
2023-01-07T11:48:49.811Z,94768.75
2023-01-07T11:51:16.469Z,94765.09
2023-01-07T11:53:42.804Z,94763.09
2023-01-07T11:56:09.191Z,94754.81
2023-01-07T11:58:35.576Z,94751.22
2023-01-07T12:01:01.968Z,94739.81
2023-01-07T12:03:29.453Z,94730.16
2023-01-07T12:05:58.201Z,94728.31
2023-01-07T12:08:24.585Z,94730.41
2023-01-07T12:10:53.259Z,94725.56
2023-01-07T12:13:19.641Z,94721.72
2023-01-07T12:15:46.265Z,94720.16
2023-01-07T12:18:12.730Z,94705.00
2023-01-07T12:20:39.314Z,94709.91
2023-01-07T12:23:06.064Z,94709.41
2023-01-07T12:25:34.422Z,94698.97
2023-01-07T12:28:00.877Z,94692.13
2023-01-07T12:30:27.739Z,94691.09
2023-01-07T12:32:56.364Z,94686.78
2023-01-07T12:35:22.975Z,94680.78
2023-01-07T12:37:56.548Z,94675.94
2023-01-07T12:40:22.917Z,94675.09
2023-01-07T12:42:49.325Z,94670.38
2023-01-07T12:45:17.859Z,94672.59
2023-01-07T12:47:46.475Z,94666.47
2023-01-07T12:50:13.667Z,94671.75
2023-01-07T12:52:40.073Z,94665.66
2023-01-07T12:55:06.633Z,94668.16
2023-01-07T12:57:32.993Z,94665.78
2023-01-07T12:59:59.370Z,94668.34
2023-01-07T13:02:26.348Z,94664.03
2023-01-07T13:04:55.264Z,94654.69
2023-01-07T13:07:21.661Z,94646.31
2023-01-07T13:09:48.036Z,94655.31
2023-01-07T13:12:42.140Z,94643.56
2023-01-07T13:15:00.877Z,94642.31
2023-01-07T13:17:27.387Z,94635.13
2023-01-07T13:19:53.945Z,94625.75
2023-01-07T13:22:20.927Z,94633.09
2023-01-07T13:24:54.805Z,94624.94
2023-01-07T13:27:23.010Z,94632.06
2023-01-07T13:29:49.507Z,94632.19
2023-01-07T13:32:16.210Z,94623.81
2023-01-07T13:34:42.853Z,94627.22
2023-01-07T13:37:09.228Z,94618.94
2023-01-07T13:39:35.622Z,94621.25
2023-01-07T13:42:02.110Z,94629.94
2023-01-07T13:44:28.663Z,94625.06
2023-01-07T13:46:55.484Z,94623.88
2023-01-07T13:49:21.872Z,94617.22
2023-01-07T13:51:49.271Z,94618.28
2023-01-07T13:54:15.866Z,94605.28
2023-01-07T13:56:42.489Z,94613.03
2023-01-07T13:59:08.880Z,94610.22
2023-01-07T14:01:35.390Z,94614.28
2023-01-07T14:04:01.786Z,94615.06
2023-01-07T14:06:29.249Z,94614.50
2023-01-07T14:08:55.798Z,94615.31
2023-01-07T14:11:22.185Z,94613.25
2023-01-07T14:13:48.567Z,94609.81
2023-01-07T14:16:15.701Z,94604.91
2023-01-07T14:18:42.350Z,94614.28
2023-01-07T14:21:09.086Z,94614.69
2023-01-07T14:23:35.809Z,94613.03
2023-01-07T14:26:04.980Z,94609.75
2023-01-07T14:28:31.365Z,94611.41
2023-01-07T14:30:58.774Z,94609.38
2023-01-07T14:33:25.808Z,94613.03
2023-01-07T14:35:52.632Z,94608.50
2023-01-07T14:38:19.204Z,94604.59
2023-01-07T14:40:45.539Z,94602.84
2023-01-07T14:43:13.714Z,94596.59
2023-01-07T14:45:40.191Z,94601.50
2023-01-07T14:48:08.820Z,94605.78
2023-01-07T14:50:35.244Z,94612.78
2023-01-07T14:53:02.273Z,94608.44
2023-01-07T14:55:28.850Z,94618.69
2023-01-07T14:57:55.170Z,94609.91
2023-01-07T15:00:21.504Z,94618.78
2023-01-07T15:02:47.895Z,94620.53
2023-01-07T15:05:17.852Z,94613.97
2023-01-07T15:10:28.267Z,94611.72
2023-01-07T15:12:55.742Z,94611.25
2023-01-07T15:15:22.568Z,94611.25
2023-01-07T15:17:51.733Z,94616.78
2023-01-07T15:20:18.340Z,94608.44
2023-01-07T15:22:45.809Z,94611.66
2023-01-07T15:25:12.202Z,94609.13
2023-01-07T15:27:41.900Z,94608.22
2023-01-07T15:30:10.593Z,94608.75
2023-01-07T15:32:36.982Z,94605.59
2023-01-07T15:35:04.350Z,94606.72
2023-01-07T15:37:30.716Z,94603.72
2023-01-07T15:39:57.325Z,94611.09
2023-01-07T15:42:25.043Z,94603.34
2023-01-07T15:44:51.475Z,94605.47
2023-01-07T15:47:17.866Z,94616.91
2023-01-07T15:49:44.660Z,94613.97
2023-01-07T15:52:11.493Z,94607.91
2023-01-07T15:54:38.138Z,94615.44
2023-01-07T15:57:04.871Z,94614.03
2023-01-07T15:59:31.502Z,94615.88
2023-01-07T16:01:59.020Z,94629.31
2023-01-07T16:04:26.810Z,94624.09
2023-01-07T16:06:54.599Z,94624.78
2023-01-07T16:09:20.969Z,94629.13
2023-01-07T16:11:47.415Z,94624.34
2023-01-07T16:14:15.527Z,94620.59
2023-01-07T16:16:42.317Z,94628.19
2023-01-07T16:19:08.669Z,94624.25
2023-01-07T16:21:37.451Z,94623.28
2023-01-07T16:24:03.848Z,94623.13
2023-01-07T16:26:31.304Z,94620.72
2023-01-07T16:29:00.314Z,94624.03
2023-01-07T16:31:26.750Z,94624.03
2023-01-07T16:33:54.245Z,94622.38
2023-01-07T16:36:20.939Z,94622.09
2023-01-07T16:38:49.591Z,94619.81
2023-01-07T16:41:15.973Z,94620.47
2023-01-07T16:43:42.533Z,94623.59
2023-01-07T16:46:08.921Z,94617.03
2023-01-07T16:48:35.630Z,94597.97
2023-01-07T16:51:01.984Z,94613.22
2023-01-07T16:53:35.876Z,94603.72
2023-01-07T16:56:02.590Z,94604.91
2023-01-07T16:58:28.981Z,94603.16
2023-01-07T17:00:55.446Z,94606.75
2023-01-07T17:03:21.875Z,94616.97
2023-01-07T17:05:48.225Z,94616.31
2023-01-07T17:08:17.273Z,94612.69
2023-01-07T17:10:44.202Z,94604.66
2023-01-07T17:13:10.817Z,94623.22
2023-01-07T17:15:37.302Z,94619.25
2023-01-07T17:18:03.640Z,94610.88
2023-01-07T17:20:30.034Z,94616.97
2023-01-07T17:22:56.712Z,94607.94
2023-01-07T17:25:23.079Z,94613.34
2023-01-07T17:27:51.752Z,94610.88
2023-01-07T17:30:18.107Z,94619.59
2023-01-07T17:32:44.879Z,94620.22
2023-01-07T17:35:13.585Z,94616.28
2023-01-07T17:37:39.935Z,94617.75
2023-01-07T17:40:06.282Z,94609.38
2023-01-07T17:42:32.912Z,94603.94
2023-01-07T17:44:59.302Z,94609.00
2023-01-07T17:47:25.663Z,94615.38
2023-01-07T17:49:52.143Z,94612.72
2023-01-07T17:52:18.617Z,94611.25
2023-01-07T17:54:44.997Z,94620.13
2023-01-07T17:57:12.046Z,94616.91
2023-01-07T17:59:38.408Z,94610.69
2023-01-07T18:02:07.225Z,94609.75
2023-01-07T18:04:33.801Z,94610.22
2023-01-07T18:07:01.361Z,94610.06
2023-01-07T18:09:28.135Z,94610.41
2023-01-07T18:11:54.526Z,94605.16
2023-01-07T18:14:20.861Z,94606.44
2023-01-07T18:16:47.269Z,94594.72
2023-01-07T18:19:13.704Z,94600.50
2023-01-07T18:21:40.099Z,94599.03
2023-01-07T18:24:06.585Z,94598.53
2023-01-07T18:26:33.843Z,94608.75
2023-01-07T18:29:03.068Z,94598.38
2023-01-07T19:20:55.573Z,94588.22
2023-01-07T19:23:22.252Z,94591.81
2023-01-07T19:25:48.602Z,94592.00
2023-01-07T19:28:15.270Z,94589.53
2023-01-07T19:30:41.632Z,94591.66
2023-01-07T19:33:08.019Z,94585.91
2023-01-07T19:35:36.671Z,94583.78
2023-01-07T19:38:03.660Z,94586.75
2023-01-07T19:40:30.585Z,94575.41
2023-01-07T19:42:59.318Z,94583.13
2023-01-07T19:45:25.710Z,94588.38
2023-01-07T19:47:52.052Z,94588.06
2023-01-07T19:50:18.748Z,94584.06
2023-01-07T19:52:47.186Z,94592.44
2023-01-07T19:55:13.540Z,94589.31
2023-01-07T19:57:42.265Z,94591.41
2023-01-07T20:00:09.698Z,94587.63
2023-01-07T20:02:37.374Z,94598.06
2023-01-07T20:05:07.123Z,94593.31
2023-01-07T20:07:35.527Z,94593.13
2023-01-07T20:10:02.683Z,94589.84
2023-01-07T20:12:29.218Z,94590.03
2023-01-07T20:14:55.949Z,94593.94
2023-01-07T20:17:22.596Z,94590.50
2023-01-07T20:19:51.226Z,94580.97
2023-01-07T20:22:18.585Z,94581.28
2023-01-07T20:24:44.916Z,94586.88
2023-01-07T20:27:11.339Z,94589.13
2023-01-07T20:29:37.800Z,94592.03
2023-01-07T20:32:04.416Z,94594.09
2023-01-07T20:34:31.757Z,94589.25
2023-01-07T20:36:58.105Z,94576.72
2023-01-07T20:39:24.668Z,94577.34
2023-01-07T20:41:53.436Z,94563.84
2023-01-07T20:44:24.088Z,94557.28
2023-01-07T20:46:50.433Z,94564.31
2023-01-07T20:49:20.082Z,94575.78
2023-01-07T20:51:46.689Z,94559.56
2023-01-07T20:54:14.262Z,94557.56
2023-01-07T20:56:40.837Z,94561.28
2023-01-07T20:59:07.525Z,94573.72
2023-01-07T21:01:35.068Z,94565.66
2023-01-07T21:04:03.857Z,94556.59
2023-01-07T21:06:31.817Z,94548.53
2023-01-07T21:08:59.768Z,94545.84
2023-01-07T21:11:28.998Z,94537.31
2023-01-07T21:13:56.161Z,94535.38
2023-01-07T21:16:22.812Z,94541.22
2023-01-07T21:18:56.916Z,94540.94
2023-01-07T21:21:24.333Z,94551.69
2023-01-07T21:23:51.020Z,94549.56
2023-01-07T21:26:17.383Z,94536.91
2023-01-07T21:28:44.953Z,94532.28
2023-01-07T21:31:13.456Z,94521.81
2023-01-07T21:33:41.012Z,94520.13
2023-01-07T21:36:08.715Z,94519.34
2023-01-07T21:38:35.737Z,94518.50
2023-01-07T21:41:02.438Z,94518.56
2023-01-07T21:43:28.886Z,94512.06
2023-01-07T21:45:55.283Z,94502.25
2023-01-07T21:48:21.709Z,94492.44
2023-01-07T21:50:49.291Z,94485.25
2023-01-07T21:53:15.771Z,94481.81
2023-01-07T21:55:42.121Z,94475.91
2023-01-07T21:58:09.129Z,94475.56
2023-01-07T22:00:40.334Z,94498.13
2023-01-07T22:03:06.797Z,94497.25
2023-01-07T22:05:33.193Z,94499.44
2023-01-07T22:08:01.959Z,94505.72
2023-01-07T22:10:34.587Z,94510.91
2023-01-07T22:13:00.984Z,94505.66
2023-01-07T22:15:27.398Z,94505.03
2023-01-07T22:17:54.240Z,94503.56
2023-01-07T22:20:20.760Z,94489.34
2023-01-07T22:22:47.758Z,94481.38
2023-01-07T22:25:14.143Z,94487.78
2023-01-07T22:27:42.537Z,94484.88
2023-01-07T22:30:09.089Z,94480.69
2023-01-07T22:32:35.532Z,94484.59
2023-01-07T22:35:01.895Z,94497.00
2023-01-07T22:37:28.461Z,94499.22
2023-01-07T22:39:54.932Z,94497.34
2023-01-07T22:42:21.303Z,94489.25
2023-01-07T22:44:47.654Z,94486.63
2023-01-07T22:47:21.547Z,94488.31
2023-01-07T22:49:48.143Z,94484.03
2023-01-07T22:52:16.884Z,94482.75
2023-01-07T22:54:43.351Z,94492.94
2023-01-07T22:57:09.907Z,94484.94
2023-01-07T22:59:36.296Z,94491.84
2023-01-07T23:02:02.710Z,94495.25
2023-01-07T23:04:32.098Z,94490.47
2023-01-07T23:06:59.124Z,94478.94
2023-01-07T23:09:25.625Z,94480.69
2023-01-07T23:11:52.246Z,94470.13
2023-01-07T23:14:19.678Z,94459.81
2023-01-07T23:16:46.180Z,94459.97
2023-01-07T23:19:12.556Z,94457.66
2023-01-07T23:21:39.287Z,94450.75
2023-01-07T23:24:05.626Z,94451.75
2023-01-07T23:26:31.972Z,94445.28
2023-01-07T23:28:58.349Z,94441.47
2023-01-07T23:31:24.772Z,94441.13
2023-01-07T23:33:51.129Z,94435.22
2023-01-07T23:36:17.676Z,94451.31
2023-01-07T23:38:46.063Z,94438.69
2023-01-07T23:41:12.396Z,94442.84
2023-01-07T23:43:38.740Z,94431.06
2023-01-07T23:46:07.272Z,94431.06
2023-01-07T23:48:33.976Z,94419.25
2023-01-07T23:51:02.418Z,94416.91
2023-01-07T23:53:31.105Z,94427.78
2023-01-07T23:55:57.483Z,94431.75
2023-01-07T23:58:24.023Z,94423.91
